sensor_id;sensor_type;location;lat;lon;timestamp;P1;durP1;ratioP1;P2;durP2;ratioP2
66189;SDS011;52992;52.084;5.412;2024-01-25T00:00:20;20.20;;;4.20;;
66189;SDS011;52992;52.084;5.412;2024-01-25T00:02:47;26.73;;;4.93;;
66189;SDS011;52992;52.084;5.412;2024-01-25T00:05:14;19.83;;;3.80;;
66189;SDS011;52992;52.084;5.412;2024-01-25T00:07:48;17.10;;;3.77;;
66189;SDS011;52992;52.084;5.412;2024-01-25T00:10:16;18.50;;;3.97;;
66189;SDS011;52992;52.084;5.412;2024-01-25T00:12:45;19.70;;;4.20;;
66189;SDS011;52992;52.084;5.412;2024-01-25T00:15:12;21.03;;;4.03;;
66189;SDS011;52992;52.084;5.412;2024-01-25T00:17:39;22.77;;;4.57;;
66189;SDS011;52992;52.084;5.412;2024-01-25T00:20:08;17.77;;;3.93;;
66189;SDS011;52992;52.084;5.412;2024-01-25T00:22:36;22.07;;;4.27;;
66189;SDS011;52992;52.084;5.412;2024-01-25T00:25:04;25.60;;;4.00;;
66189;SDS011;52992;52.084;5.412;2024-01-25T00:27:32;16.40;;;3.93;;
66189;SDS011;52992;52.084;5.412;2024-01-25T00:29:59;20.37;;;4.00;;
66189;SDS011;52992;52.084;5.412;2024-01-25T00:32:26;22.57;;;4.23;;
66189;SDS011;52992;52.084;5.412;2024-01-25T00:34:54;17.10;;;4.63;;
66189;SDS011;52992;52.084;5.412;2024-01-25T00:37:21;18.80;;;4.43;;
66189;SDS011;52992;52.084;5.412;2024-01-25T00:39:48;17.97;;;4.00;;
66189;SDS011;52992;52.084;5.412;2024-01-25T00:42:17;18.80;;;4.50;;
66189;SDS011;52992;52.084;5.412;2024-01-25T00:44:48;20.83;;;4.63;;
66189;SDS011;52992;52.084;5.412;2024-01-25T00:47:16;21.43;;;5.87;;
66189;SDS011;52992;52.084;5.412;2024-01-25T00:49:43;31.90;;;5.20;;
66189;SDS011;52992;52.084;5.412;2024-01-25T00:52:10;20.77;;;4.03;;
66189;SDS011;52992;52.084;5.412;2024-01-25T00:54:38;18.70;;;4.23;;
66189;SDS011;52992;52.084;5.412;2024-01-25T00:57:05;19.83;;;4.33;;
66189;SDS011;52992;52.084;5.412;2024-01-25T00:59:32;22.63;;;4.50;;
66189;SDS011;52992;52.084;5.412;2024-01-25T01:01:59;16.67;;;3.87;;
66189;SDS011;52992;52.084;5.412;2024-01-25T01:04:34;18.93;;;5.03;;
66189;SDS011;52992;52.084;5.412;2024-01-25T01:07:13;19.47;;;4.17;;
66189;SDS011;52992;52.084;5.412;2024-01-25T01:09:41;20.00;;;3.40;;
66189;SDS011;52992;52.084;5.412;2024-01-25T01:12:08;23.73;;;4.47;;
66189;SDS011;52992;52.084;5.412;2024-01-25T01:14:35;22.00;;;4.90;;
66189;SDS011;52992;52.084;5.412;2024-01-25T01:17:02;25.77;;;4.43;;
66189;SDS011;52992;52.084;5.412;2024-01-25T01:19:29;22.87;;;4.87;;
66189;SDS011;52992;52.084;5.412;2024-01-25T01:21:56;22.90;;;5.03;;
66189;SDS011;52992;52.084;5.412;2024-01-25T01:24:23;21.70;;;4.40;;
66189;SDS011;52992;52.084;5.412;2024-01-25T01:26:50;29.80;;;4.87;;
66189;SDS011;52992;52.084;5.412;2024-01-25T01:29:17;17.87;;;4.13;;
66189;SDS011;52992;52.084;5.412;2024-01-25T01:31:44;21.10;;;5.97;;
66189;SDS011;52992;52.084;5.412;2024-01-25T01:34:12;25.00;;;5.77;;
66189;SDS011;52992;52.084;5.412;2024-01-25T01:36:40;19.77;;;3.93;;
66189;SDS011;52992;52.084;5.412;2024-01-25T01:39:07;27.30;;;4.97;;
66189;SDS011;52992;52.084;5.412;2024-01-25T01:41:34;20.03;;;4.50;;
66189;SDS011;52992;52.084;5.412;2024-01-25T01:44:01;20.63;;;4.30;;
66189;SDS011;52992;52.084;5.412;2024-01-25T01:46:32;21.97;;;4.03;;
66189;SDS011;52992;52.084;5.412;2024-01-25T01:49:04;29.43;;;5.03;;
66189;SDS011;52992;52.084;5.412;2024-01-25T01:51:31;24.10;;;5.10;;
66189;SDS011;52992;52.084;5.412;2024-01-25T01:54:00;18.47;;;4.67;;
66189;SDS011;52992;52.084;5.412;2024-01-25T01:56:29;21.27;;;4.23;;
66189;SDS011;52992;52.084;5.412;2024-01-25T01:59:02;21.13;;;4.30;;
66189;SDS011;52992;52.084;5.412;2024-01-25T02:01:32;24.87;;;4.60;;
66189;SDS011;52992;52.084;5.412;2024-01-25T02:03:59;19.00;;;4.70;;
66189;SDS011;52992;52.084;5.412;2024-01-25T02:06:26;28.93;;;4.10;;
66189;SDS011;52992;52.084;5.412;2024-01-25T02:08:54;22.97;;;4.80;;
66189;SDS011;52992;52.084;5.412;2024-01-25T02:11:25;20.33;;;4.10;;
66189;SDS011;52992;52.084;5.412;2024-01-25T02:13:52;19.83;;;4.17;;
66189;SDS011;52992;52.084;5.412;2024-01-25T02:16:19;21.97;;;4.17;;
66189;SDS011;52992;52.084;5.412;2024-01-25T02:18:46;23.30;;;4.43;;
66189;SDS011;52992;52.084;5.412;2024-01-25T02:21:14;21.67;;;4.40;;
66189;SDS011;52992;52.084;5.412;2024-01-25T02:23:41;24.57;;;4.30;;
66189;SDS011;52992;52.084;5.412;2024-01-25T02:26:08;26.93;;;4.60;;
66189;SDS011;52992;52.084;5.412;2024-01-25T02:28:35;15.33;;;3.80;;
66189;SDS011;52992;52.084;5.412;2024-01-25T02:31:02;22.73;;;4.77;;
66189;SDS011;52992;52.084;5.412;2024-01-25T02:33:29;23.10;;;4.33;;
66189;SDS011;52992;52.084;5.412;2024-01-25T02:35:57;24.67;;;4.17;;
66189;SDS011;52992;52.084;5.412;2024-01-25T02:38:24;19.97;;;3.90;;
66189;SDS011;52992;52.084;5.412;2024-01-25T02:40:51;23.00;;;4.97;;
66189;SDS011;52992;52.084;5.412;2024-01-25T02:43:20;25.40;;;4.30;;
66189;SDS011;52992;52.084;5.412;2024-01-25T02:45:47;23.40;;;4.30;;
66189;SDS011;52992;52.084;5.412;2024-01-25T02:48:15;18.73;;;4.20;;
66189;SDS011;52992;52.084;5.412;2024-01-25T02:50:42;19.00;;;4.13;;
66189;SDS011;52992;52.084;5.412;2024-01-25T02:53:10;19.77;;;4.77;;
66189;SDS011;52992;52.084;5.412;2024-01-25T02:55:37;21.67;;;3.83;;
66189;SDS011;52992;52.084;5.412;2024-01-25T02:58:03;22.53;;;4.50;;
66189;SDS011;52992;52.084;5.412;2024-01-25T03:00:32;15.63;;;4.73;;
66189;SDS011;52992;52.084;5.412;2024-01-25T03:02:59;23.57;;;4.53;;
66189;SDS011;52992;52.084;5.412;2024-01-25T03:05:26;23.43;;;4.47;;
66189;SDS011;52992;52.084;5.412;2024-01-25T03:07:53;22.00;;;4.17;;
66189;SDS011;52992;52.084;5.412;2024-01-25T03:10:20;24.80;;;4.37;;
66189;SDS011;52992;52.084;5.412;2024-01-25T03:12:47;23.57;;;4.00;;
66189;SDS011;52992;52.084;5.412;2024-01-25T03:15:14;18.20;;;3.63;;
66189;SDS011;52992;52.084;5.412;2024-01-25T03:17:41;23.67;;;5.27;;
66189;SDS011;52992;52.084;5.412;2024-01-25T03:20:08;22.37;;;4.40;;
66189;SDS011;52992;52.084;5.412;2024-01-25T03:22:36;24.93;;;5.27;;
66189;SDS011;52992;52.084;5.412;2024-01-25T03:25:03;16.00;;;3.60;;
66189;SDS011;52992;52.084;5.412;2024-01-25T03:27:30;16.53;;;3.93;;
66189;SDS011;52992;52.084;5.412;2024-01-25T03:29:57;16.80;;;4.27;;
66189;SDS011;52992;52.084;5.412;2024-01-25T03:32:25;17.03;;;4.00;;
66189;SDS011;52992;52.084;5.412;2024-01-25T03:34:52;23.03;;;4.17;;
66189;SDS011;52992;52.084;5.412;2024-01-25T03:37:19;17.77;;;3.87;;
66189;SDS011;52992;52.084;5.412;2024-01-25T03:39:46;24.53;;;4.47;;
66189;SDS011;52992;52.084;5.412;2024-01-25T03:42:13;17.50;;;4.17;;
66189;SDS011;52992;52.084;5.412;2024-01-25T03:44:40;29.60;;;4.53;;
66189;SDS011;52992;52.084;5.412;2024-01-25T03:47:09;19.83;;;4.03;;
66189;SDS011;52992;52.084;5.412;2024-01-25T03:49:36;17.87;;;4.17;;
66189;SDS011;52992;52.084;5.412;2024-01-25T03:52:04;19.03;;;4.87;;
66189;SDS011;52992;52.084;5.412;2024-01-25T03:54:31;22.33;;;4.20;;
66189;SDS011;52992;52.084;5.412;2024-01-25T03:56:58;33.17;;;5.73;;
66189;SDS011;52992;52.084;5.412;2024-01-25T03:59:25;23.07;;;5.50;;
66189;SDS011;52992;52.084;5.412;2024-01-25T04:01:52;26.53;;;5.37;;
66189;SDS011;52992;52.084;5.412;2024-01-25T04:04:19;20.97;;;4.67;;
66189;SDS011;52992;52.084;5.412;2024-01-25T04:06:46;18.67;;;4.80;;
66189;SDS011;52992;52.084;5.412;2024-01-25T04:09:14;22.70;;;4.93;;
66189;SDS011;52992;52.084;5.412;2024-01-25T04:11:44;21.63;;;4.13;;
66189;SDS011;52992;52.084;5.412;2024-01-25T04:14:11;22.80;;;4.20;;
66189;SDS011;52992;52.084;5.412;2024-01-25T04:16:38;15.67;;;3.60;;
66189;SDS011;52992;52.084;5.412;2024-01-25T04:19:05;29.80;;;4.73;;
66189;SDS011;52992;52.084;5.412;2024-01-25T04:21:33;26.83;;;4.40;;
66189;SDS011;52992;52.084;5.412;2024-01-25T04:24:03;16.57;;;4.00;;
66189;SDS011;52992;52.084;5.412;2024-01-25T04:26:30;19.83;;;4.10;;
66189;SDS011;52992;52.084;5.412;2024-01-25T04:28:57;18.83;;;3.83;;
66189;SDS011;52992;52.084;5.412;2024-01-25T04:31:24;15.93;;;4.27;;
66189;SDS011;52992;52.084;5.412;2024-01-25T04:33:51;23.00;;;4.80;;
66189;SDS011;52992;52.084;5.412;2024-01-25T04:36:18;24.77;;;4.30;;
66189;SDS011;52992;52.084;5.412;2024-01-25T04:38:45;17.43;;;4.60;;
66189;SDS011;52992;52.084;5.412;2024-01-25T04:41:12;14.83;;;4.03;;
66189;SDS011;52992;52.084;5.412;2024-01-25T04:43:39;22.47;;;4.63;;
66189;SDS011;52992;52.084;5.412;2024-01-25T04:46:06;23.03;;;4.80;;
66189;SDS011;52992;52.084;5.412;2024-01-25T04:48:33;15.40;;;4.03;;
66189;SDS011;52992;52.084;5.412;2024-01-25T04:51:01;34.37;;;5.07;;
66189;SDS011;52992;52.084;5.412;2024-01-25T04:53:28;27.83;;;5.37;;
66189;SDS011;52992;52.084;5.412;2024-01-25T04:55:54;17.90;;;3.87;;
66189;SDS011;52992;52.084;5.412;2024-01-25T04:58:22;20.93;;;3.80;;
66189;SDS011;52992;52.084;5.412;2024-01-25T05:00:50;20.43;;;4.63;;
66189;SDS011;52992;52.084;5.412;2024-01-25T05:03:19;21.30;;;3.97;;
66189;SDS011;52992;52.084;5.412;2024-01-25T05:05:46;20.87;;;4.30;;
66189;SDS011;52992;52.084;5.412;2024-01-25T05:08:13;20.83;;;4.30;;
66189;SDS011;52992;52.084;5.412;2024-01-25T05:10:40;20.87;;;4.20;;
66189;SDS011;52992;52.084;5.412;2024-01-25T05:13:08;26.97;;;4.33;;
66189;SDS011;52992;52.084;5.412;2024-01-25T05:15:35;18.97;;;3.90;;
66189;SDS011;52992;52.084;5.412;2024-01-25T05:18:03;24.37;;;4.90;;
66189;SDS011;52992;52.084;5.412;2024-01-25T05:20:30;29.20;;;4.47;;
66189;SDS011;52992;52.084;5.412;2024-01-25T05:23:03;26.37;;;4.90;;
66189;SDS011;52992;52.084;5.412;2024-01-25T05:25:31;17.23;;;4.23;;
66189;SDS011;52992;52.084;5.412;2024-01-25T05:27:58;21.23;;;4.40;;
66189;SDS011;52992;52.084;5.412;2024-01-25T05:30:26;21.93;;;4.20;;
66189;SDS011;52992;52.084;5.412;2024-01-25T05:32:53;17.33;;;4.97;;
66189;SDS011;52992;52.084;5.412;2024-01-25T05:35:21;16.07;;;3.83;;
66189;SDS011;52992;52.084;5.412;2024-01-25T05:37:50;20.07;;;5.37;;
66189;SDS011;52992;52.084;5.412;2024-01-25T05:40:17;19.27;;;4.17;;
66189;SDS011;52992;52.084;5.412;2024-01-25T05:42:44;23.43;;;4.73;;
66189;SDS011;52992;52.084;5.412;2024-01-25T05:45:11;26.67;;;5.17;;
66189;SDS011;52992;52.084;5.412;2024-01-25T05:47:38;25.83;;;4.57;;
66189;SDS011;52992;52.084;5.412;2024-01-25T05:50:06;16.27;;;3.90;;
66189;SDS011;52992;52.084;5.412;2024-01-25T05:52:33;28.40;;;4.33;;
66189;SDS011;52992;52.084;5.412;2024-01-25T05:55:06;16.30;;;4.20;;
66189;SDS011;52992;52.084;5.412;2024-01-25T05:57:37;19.87;;;4.20;;
66189;SDS011;52992;52.084;5.412;2024-01-25T06:00:05;25.97;;;4.73;;
66189;SDS011;52992;52.084;5.412;2024-01-25T06:02:35;24.10;;;4.20;;
66189;SDS011;52992;52.084;5.412;2024-01-25T06:05:02;19.90;;;4.70;;
66189;SDS011;52992;52.084;5.412;2024-01-25T06:07:29;30.77;;;5.37;;
66189;SDS011;52992;52.084;5.412;2024-01-25T06:09:56;24.60;;;4.70;;
66189;SDS011;52992;52.084;5.412;2024-01-25T06:12:23;21.50;;;5.00;;
66189;SDS011;52992;52.084;5.412;2024-01-25T06:14:50;24.37;;;4.47;;
66189;SDS011;52992;52.084;5.412;2024-01-25T06:17:18;22.83;;;4.23;;
66189;SDS011;52992;52.084;5.412;2024-01-25T06:19:45;22.77;;;4.80;;
66189;SDS011;52992;52.084;5.412;2024-01-25T06:22:12;28.37;;;5.13;;
66189;SDS011;52992;52.084;5.412;2024-01-25T06:24:39;15.77;;;4.73;;
66189;SDS011;52992;52.084;5.412;2024-01-25T06:27:07;27.47;;;4.80;;
66189;SDS011;52992;52.084;5.412;2024-01-25T06:29:34;23.20;;;4.30;;
66189;SDS011;52992;52.084;5.412;2024-01-25T06:32:01;21.30;;;5.13;;
66189;SDS011;52992;52.084;5.412;2024-01-25T06:34:36;18.60;;;4.67;;
66189;SDS011;52992;52.084;5.412;2024-01-25T06:37:03;20.07;;;5.40;;
66189;SDS011;52992;52.084;5.412;2024-01-25T06:39:30;25.13;;;4.73;;
66189;SDS011;52992;52.084;5.412;2024-01-25T06:41:57;23.03;;;5.03;;
66189;SDS011;52992;52.084;5.412;2024-01-25T06:44:24;25.47;;;5.33;;
66189;SDS011;52992;52.084;5.412;2024-01-25T06:46:51;19.70;;;5.03;;
66189;SDS011;52992;52.084;5.412;2024-01-25T06:49:18;16.53;;;4.70;;
66189;SDS011;52992;52.084;5.412;2024-01-25T06:51:45;21.33;;;4.40;;
66189;SDS011;52992;52.084;5.412;2024-01-25T06:54:11;22.03;;;5.50;;
66189;SDS011;52992;52.084;5.412;2024-01-25T06:56:38;21.13;;;5.87;;
66189;SDS011;52992;52.084;5.412;2024-01-25T06:59:05;17.90;;;5.33;;
66189;SDS011;52992;52.084;5.412;2024-01-25T07:01:32;22.00;;;5.30;;
66189;SDS011;52992;52.084;5.412;2024-01-25T07:04:00;23.17;;;6.20;;
66189;SDS011;52992;52.084;5.412;2024-01-25T07:06:27;22.20;;;5.40;;
66189;SDS011;52992;52.084;5.412;2024-01-25T07:08:55;26.17;;;5.60;;
66189;SDS011;52992;52.084;5.412;2024-01-25T07:11:22;25.60;;;5.80;;
66189;SDS011;52992;52.084;5.412;2024-01-25T07:13:49;19.57;;;5.93;;
66189;SDS011;52992;52.084;5.412;2024-01-25T07:16:16;23.73;;;5.53;;
66189;SDS011;52992;52.084;5.412;2024-01-25T07:18:43;32.63;;;9.23;;
66189;SDS011;52992;52.084;5.412;2024-01-25T07:21:10;52.13;;;18.47;;
66189;SDS011;52992;52.084;5.412;2024-01-25T07:23:37;42.23;;;13.77;;
66189;SDS011;52992;52.084;5.412;2024-01-25T07:26:04;32.20;;;11.23;;
66189;SDS011;52992;52.084;5.412;2024-01-25T07:28:32;23.77;;;6.70;;
66189;SDS011;52992;52.084;5.412;2024-01-25T07:30:58;27.13;;;7.23;;
66189;SDS011;52992;52.084;5.412;2024-01-25T07:33:25;26.03;;;7.27;;
66189;SDS011;52992;52.084;5.412;2024-01-25T07:35:53;28.93;;;6.00;;
66189;SDS011;52992;52.084;5.412;2024-01-25T07:38:19;26.63;;;6.23;;
66189;SDS011;52992;52.084;5.412;2024-01-25T07:40:46;22.23;;;6.20;;
66189;SDS011;52992;52.084;5.412;2024-01-25T07:43:13;25.20;;;6.13;;
66189;SDS011;52992;52.084;5.412;2024-01-25T07:45:40;33.70;;;6.63;;
66189;SDS011;52992;52.084;5.412;2024-01-25T07:48:07;28.03;;;7.07;;
66189;SDS011;52992;52.084;5.412;2024-01-25T07:50:41;25.43;;;6.73;;
66189;SDS011;52992;52.084;5.412;2024-01-25T07:53:08;24.47;;;6.33;;
66189;SDS011;52992;52.084;5.412;2024-01-25T07:55:36;15.67;;;5.90;;
66189;SDS011;52992;52.084;5.412;2024-01-25T07:58:03;26.07;;;5.83;;
66189;SDS011;52992;52.084;5.412;2024-01-25T08:00:30;21.17;;;5.40;;
66189;SDS011;52992;52.084;5.412;2024-01-25T08:02:57;22.20;;;5.40;;
66189;SDS011;52992;52.084;5.412;2024-01-25T08:05:24;21.00;;;5.07;;
66189;SDS011;52992;52.084;5.412;2024-01-25T08:08:06;32.57;;;6.73;;
66189;SDS011;52992;52.084;5.412;2024-01-25T08:10:34;20.67;;;5.67;;
66189;SDS011;52992;52.084;5.412;2024-01-25T08:13:01;23.80;;;5.50;;
66189;SDS011;52992;52.084;5.412;2024-01-25T08:15:33;26.40;;;5.23;;
66189;SDS011;52992;52.084;5.412;2024-01-25T08:18:00;20.40;;;6.77;;
66189;SDS011;52992;52.084;5.412;2024-01-25T08:20:28;27.87;;;6.70;;
66189;SDS011;52992;52.084;5.412;2024-01-25T08:22:55;26.93;;;6.97;;
66189;SDS011;52992;52.084;5.412;2024-01-25T08:25:22;27.90;;;6.47;;
66189;SDS011;52992;52.084;5.412;2024-01-25T08:27:50;26.53;;;7.80;;
66189;SDS011;52992;52.084;5.412;2024-01-25T08:30:17;25.23;;;6.87;;
66189;SDS011;52992;52.084;5.412;2024-01-25T08:32:44;27.03;;;6.93;;
66189;SDS011;52992;52.084;5.412;2024-01-25T08:35:11;24.03;;;6.67;;
66189;SDS011;52992;52.084;5.412;2024-01-25T08:37:38;23.73;;;7.10;;
66189;SDS011;52992;52.084;5.412;2024-01-25T08:40:06;23.97;;;7.10;;
66189;SDS011;52992;52.084;5.412;2024-01-25T08:42:36;18.33;;;6.03;;
66189;SDS011;52992;52.084;5.412;2024-01-25T08:45:03;24.93;;;6.37;;
66189;SDS011;52992;52.084;5.412;2024-01-25T08:47:33;18.20;;;5.83;;
66189;SDS011;52992;52.084;5.412;2024-01-25T08:50:03;22.50;;;5.37;;
66189;SDS011;52992;52.084;5.412;2024-01-25T08:52:33;22.27;;;5.03;;
66189;SDS011;52992;52.084;5.412;2024-01-25T08:55:00;18.23;;;5.87;;
66189;SDS011;52992;52.084;5.412;2024-01-25T08:57:27;24.17;;;6.23;;
66189;SDS011;52992;52.084;5.412;2024-01-25T08:59:53;23.67;;;5.43;;
66189;SDS011;52992;52.084;5.412;2024-01-25T09:02:21;27.47;;;5.93;;
66189;SDS011;52992;52.084;5.412;2024-01-25T09:04:53;22.77;;;6.17;;
66189;SDS011;52992;52.084;5.412;2024-01-25T09:07:20;18.17;;;6.23;;
66189;SDS011;52992;52.084;5.412;2024-01-25T09:09:47;24.53;;;7.30;;
66189;SDS011;52992;52.084;5.412;2024-01-25T09:12:15;29.53;;;9.17;;
66189;SDS011;52992;52.084;5.412;2024-01-25T09:14:42;37.67;;;8.97;;
66189;SDS011;52992;52.084;5.412;2024-01-25T09:17:09;26.70;;;7.63;;
66189;SDS011;52992;52.084;5.412;2024-01-25T09:19:36;31.23;;;7.23;;
66189;SDS011;52992;52.084;5.412;2024-01-25T09:22:04;29.10;;;7.60;;
66189;SDS011;52992;52.084;5.412;2024-01-25T09:24:32;20.23;;;6.50;;
66189;SDS011;52992;52.084;5.412;2024-01-25T09:27:02;24.57;;;7.00;;
66189;SDS011;52992;52.084;5.412;2024-01-25T09:29:30;24.77;;;5.93;;
66189;SDS011;52992;52.084;5.412;2024-01-25T09:31:57;22.93;;;5.67;;
66189;SDS011;52992;52.084;5.412;2024-01-25T09:34:24;28.67;;;7.33;;
66189;SDS011;52992;52.084;5.412;2024-01-25T09:36:51;18.40;;;5.83;;
66189;SDS011;52992;52.084;5.412;2024-01-25T09:39:18;29.10;;;5.80;;
66189;SDS011;52992;52.084;5.412;2024-01-25T09:41:46;15.57;;;6.50;;
66189;SDS011;52992;52.084;5.412;2024-01-25T09:44:13;22.47;;;6.80;;
66189;SDS011;52992;52.084;5.412;2024-01-25T09:46:41;23.70;;;5.70;;
66189;SDS011;52992;52.084;5.412;2024-01-25T09:49:09;24.20;;;5.80;;
66189;SDS011;52992;52.084;5.412;2024-01-25T09:51:39;25.60;;;6.03;;
66189;SDS011;52992;52.084;5.412;2024-01-25T09:54:08;18.77;;;5.70;;
66189;SDS011;52992;52.084;5.412;2024-01-25T09:56:36;24.47;;;5.73;;
66189;SDS011;52992;52.084;5.412;2024-01-25T09:59:06;33.17;;;6.97;;
66189;SDS011;52992;52.084;5.412;2024-01-25T10:01:34;20.53;;;5.97;;
66189;SDS011;52992;52.084;5.412;2024-01-25T10:04:01;30.47;;;6.97;;
66189;SDS011;52992;52.084;5.412;2024-01-25T10:06:33;29.30;;;5.90;;
66189;SDS011;52992;52.084;5.412;2024-01-25T10:09:00;23.73;;;6.70;;
66189;SDS011;52992;52.084;5.412;2024-01-25T10:11:28;25.17;;;6.20;;
66189;SDS011;52992;52.084;5.412;2024-01-25T10:14:05;26.37;;;6.43;;
66189;SDS011;52992;52.084;5.412;2024-01-25T10:16:34;24.20;;;6.63;;
66189;SDS011;52992;52.084;5.412;2024-01-25T10:19:02;35.20;;;9.07;;
66189;SDS011;52992;52.084;5.412;2024-01-25T10:21:35;24.47;;;8.17;;
66189;SDS011;52992;52.084;5.412;2024-01-25T10:24:05;28.10;;;7.70;;
66189;SDS011;52992;52.084;5.412;2024-01-25T10:26:34;29.47;;;6.57;;
66189;SDS011;52992;52.084;5.412;2024-01-25T10:29:01;31.33;;;7.97;;
66189;SDS011;52992;52.084;5.412;2024-01-25T10:31:29;24.50;;;7.73;;
66189;SDS011;52992;52.084;5.412;2024-01-25T10:33:59;26.40;;;6.93;;
66189;SDS011;52992;52.084;5.412;2024-01-25T10:36:28;25.57;;;6.17;;
66189;SDS011;52992;52.084;5.412;2024-01-25T10:38:56;21.87;;;6.33;;
66189;SDS011;52992;52.084;5.412;2024-01-25T10:41:24;26.27;;;6.97;;
66189;SDS011;52992;52.084;5.412;2024-01-25T10:43:54;24.70;;;7.77;;
66189;SDS011;52992;52.084;5.412;2024-01-25T10:46:21;24.87;;;6.70;;
66189;SDS011;52992;52.084;5.412;2024-01-25T10:48:49;32.43;;;7.87;;
66189;SDS011;52992;52.084;5.412;2024-01-25T10:51:18;23.27;;;7.77;;
66189;SDS011;52992;52.084;5.412;2024-01-25T10:53:45;26.10;;;7.27;;
66189;SDS011;52992;52.084;5.412;2024-01-25T10:56:13;23.83;;;6.83;;
66189;SDS011;52992;52.084;5.412;2024-01-25T10:58:40;24.30;;;6.80;;
66189;SDS011;52992;52.084;5.412;2024-01-25T11:01:09;28.10;;;7.67;;
66189;SDS011;52992;52.084;5.412;2024-01-25T11:03:42;28.07;;;7.30;;
66189;SDS011;52992;52.084;5.412;2024-01-25T11:06:12;27.93;;;7.30;;
66189;SDS011;52992;52.084;5.412;2024-01-25T11:08:39;26.87;;;6.83;;
66189;SDS011;52992;52.084;5.412;2024-01-25T11:11:07;23.03;;;6.70;;
66189;SDS011;52992;52.084;5.412;2024-01-25T11:13:39;26.10;;;6.73;;
66189;SDS011;52992;52.084;5.412;2024-01-25T11:16:17;25.17;;;6.57;;
66189;SDS011;52992;52.084;5.412;2024-01-25T11:18:50;30.63;;;8.10;;
66189;SDS011;52992;52.084;5.412;2024-01-25T11:21:22;34.60;;;7.93;;
66189;SDS011;52992;52.084;5.412;2024-01-25T11:23:58;30.47;;;8.40;;
66189;SDS011;52992;52.084;5.412;2024-01-25T11:26:31;32.60;;;8.10;;
66189;SDS011;52992;52.084;5.412;2024-01-25T11:28:58;29.90;;;7.80;;
66189;SDS011;52992;52.084;5.412;2024-01-25T11:31:28;21.67;;;6.87;;
66189;SDS011;52992;52.084;5.412;2024-01-25T11:33:57;29.27;;;7.10;;
66189;SDS011;52992;52.084;5.412;2024-01-25T11:36:25;30.63;;;7.00;;
66189;SDS011;52992;52.084;5.412;2024-01-25T11:38:52;25.50;;;6.97;;
66189;SDS011;52992;52.084;5.412;2024-01-25T11:41:19;29.77;;;7.60;;
66189;SDS011;52992;52.084;5.412;2024-01-25T11:43:50;29.10;;;7.53;;
66189;SDS011;52992;52.084;5.412;2024-01-25T11:46:17;29.70;;;8.73;;
66189;SDS011;52992;52.084;5.412;2024-01-25T11:48:44;29.27;;;7.77;;
66189;SDS011;52992;52.084;5.412;2024-01-25T11:51:12;25.40;;;7.83;;
66189;SDS011;52992;52.084;5.412;2024-01-25T11:53:40;21.97;;;7.50;;
66189;SDS011;52992;52.084;5.412;2024-01-25T11:56:08;27.17;;;7.97;;
66189;SDS011;52992;52.084;5.412;2024-01-25T11:58:38;22.97;;;7.80;;
66189;SDS011;52992;52.084;5.412;2024-01-25T12:01:08;25.53;;;7.53;;
66189;SDS011;52992;52.084;5.412;2024-01-25T12:03:36;26.33;;;7.27;;
66189;SDS011;52992;52.084;5.412;2024-01-25T12:06:06;24.33;;;8.03;;
66189;SDS011;52992;52.084;5.412;2024-01-25T12:08:35;32.40;;;8.37;;
66189;SDS011;52992;52.084;5.412;2024-01-25T12:11:06;33.07;;;8.23;;
66189;SDS011;52992;52.084;5.412;2024-01-25T12:13:41;30.07;;;8.80;;
66189;SDS011;52992;52.084;5.412;2024-01-25T12:16:09;25.53;;;7.87;;
66189;SDS011;52992;52.084;5.412;2024-01-25T12:18:37;21.13;;;8.30;;
66189;SDS011;52992;52.084;5.412;2024-01-25T12:21:06;38.70;;;9.70;;
66189;SDS011;52992;52.084;5.412;2024-01-25T12:23:34;28.83;;;8.80;;
66189;SDS011;52992;52.084;5.412;2024-01-25T12:26:09;29.83;;;8.53;;
66189;SDS011;52992;52.084;5.412;2024-01-25T12:28:40;29.97;;;8.73;;
66189;SDS011;52992;52.084;5.412;2024-01-25T12:31:08;33.93;;;8.67;;
66189;SDS011;52992;52.084;5.412;2024-01-25T12:33:35;36.07;;;8.90;;
66189;SDS011;52992;52.084;5.412;2024-01-25T12:36:03;32.83;;;8.97;;
66189;SDS011;52992;52.084;5.412;2024-01-25T12:38:31;28.60;;;8.20;;
66189;SDS011;52992;52.084;5.412;2024-01-25T12:41:01;32.47;;;9.63;;
66189;SDS011;52992;52.084;5.412;2024-01-25T12:43:29;27.80;;;8.87;;
66189;SDS011;52992;52.084;5.412;2024-01-25T12:45:57;32.37;;;8.83;;
66189;SDS011;52992;52.084;5.412;2024-01-25T12:48:42;26.43;;;7.47;;
66189;SDS011;52992;52.084;5.412;2024-01-25T12:51:10;25.33;;;7.43;;
66189;SDS011;52992;52.084;5.412;2024-01-25T12:53:37;24.40;;;7.50;;
66189;SDS011;52992;52.084;5.412;2024-01-25T12:56:04;27.90;;;8.53;;
66189;SDS011;52992;52.084;5.412;2024-01-25T12:58:31;32.73;;;8.57;;
66189;SDS011;52992;52.084;5.412;2024-01-25T13:00:59;32.33;;;8.47;;
66189;SDS011;52992;52.084;5.412;2024-01-25T13:03:26;27.77;;;8.37;;
66189;SDS011;52992;52.084;5.412;2024-01-25T13:05:53;25.93;;;8.93;;
66189;SDS011;52992;52.084;5.412;2024-01-25T13:08:20;42.50;;;9.00;;
66189;SDS011;52992;52.084;5.412;2024-01-25T13:10:47;30.10;;;9.63;;
66189;SDS011;52992;52.084;5.412;2024-01-25T13:13:14;33.10;;;10.60;;
66189;SDS011;52992;52.084;5.412;2024-01-25T13:15:40;30.53;;;10.17;;
66189;SDS011;52992;52.084;5.412;2024-01-25T13:18:07;39.63;;;10.43;;
66189;SDS011;52992;52.084;5.412;2024-01-25T13:20:34;29.27;;;8.80;;
66189;SDS011;52992;52.084;5.412;2024-01-25T13:23:01;27.60;;;8.30;;
66189;SDS011;52992;52.084;5.412;2024-01-25T13:25:28;31.53;;;9.70;;
66189;SDS011;52992;52.084;5.412;2024-01-25T13:27:55;29.57;;;9.13;;
66189;SDS011;52992;52.084;5.412;2024-01-25T13:30:22;32.10;;;10.30;;
66189;SDS011;52992;52.084;5.412;2024-01-25T13:32:49;27.03;;;9.13;;
66189;SDS011;52992;52.084;5.412;2024-01-25T13:35:16;33.83;;;9.90;;
66189;SDS011;52992;52.084;5.412;2024-01-25T13:37:43;34.33;;;9.03;;
66189;SDS011;52992;52.084;5.412;2024-01-25T13:40:10;46.27;;;10.90;;
66189;SDS011;52992;52.084;5.412;2024-01-25T13:42:37;40.40;;;10.23;;
66189;SDS011;52992;52.084;5.412;2024-01-25T13:45:05;31.47;;;9.00;;
66189;SDS011;52992;52.084;5.412;2024-01-25T13:47:33;32.27;;;9.50;;
66189;SDS011;52992;52.084;5.412;2024-01-25T13:50:00;37.50;;;10.10;;
66189;SDS011;52992;52.084;5.412;2024-01-25T13:52:27;39.90;;;10.33;;
66189;SDS011;52992;52.084;5.412;2024-01-25T13:54:54;32.57;;;10.07;;
66189;SDS011;52992;52.084;5.412;2024-01-25T13:57:21;38.40;;;10.20;;
66189;SDS011;52992;52.084;5.412;2024-01-25T13:59:50;32.20;;;10.17;;
66189;SDS011;52992;52.084;5.412;2024-01-25T14:02:17;32.03;;;10.43;;
66189;SDS011;52992;52.084;5.412;2024-01-25T14:04:45;34.77;;;10.13;;
66189;SDS011;52992;52.084;5.412;2024-01-25T14:07:14;34.50;;;10.10;;
66189;SDS011;52992;52.084;5.412;2024-01-25T14:09:42;39.90;;;11.30;;
66189;SDS011;52992;52.084;5.412;2024-01-25T14:12:09;25.50;;;9.67;;
66189;SDS011;52992;52.084;5.412;2024-01-25T14:14:37;37.20;;;10.87;;
66189;SDS011;52992;52.084;5.412;2024-01-25T14:17:04;35.90;;;10.47;;
66189;SDS011;52992;52.084;5.412;2024-01-25T14:19:32;38.53;;;10.47;;
66189;SDS011;52992;52.084;5.412;2024-01-25T14:22:00;34.47;;;10.80;;
66189;SDS011;52992;52.084;5.412;2024-01-25T14:24:47;37.23;;;11.80;;
66189;SDS011;52992;52.084;5.412;2024-01-25T14:27:14;37.90;;;11.43;;
66189;SDS011;52992;52.084;5.412;2024-01-25T14:29:41;41.90;;;11.27;;
66189;SDS011;52992;52.084;5.412;2024-01-25T14:32:08;31.70;;;11.83;;
66189;SDS011;52992;52.084;5.412;2024-01-25T14:34:35;36.90;;;11.73;;
66189;SDS011;52992;52.084;5.412;2024-01-25T14:37:02;40.63;;;12.13;;